Urb Luquillo Beach, Puerto Rico
Current Conditions -  °F | °C
As of 1:53 AM on Friday 19 Dec 2014 (Local Time) from TJNR Reporting Station
Scattered Clouds Scattered Clouds  
Wind Chill: 79°   Ceiling: Unl
Heat Index: 81°   Visibility: 10mi
Dew Point: 67°   Wind: 12mph
Humidity: 66%   Direction: 60°ENE
Pressure: 29.99"   Gusts: NA
Location:  18.3744°N, 65.7168°W
Report Text: TJNR 190553Z AUTO 06010KT 10SM FEW032 SCT060 SCT080 26/19 A2999 RMK AO2 SLP154 T02610194 10267 20256 58014 $
Loading
Personal Weather Stations






























Interactive Weather Map New forecast layout! Learn more

10-Day Weather Forecast

Advertisements
Track Severe Weather on mobile